sensor_id;sensor_type;location;lat;lon;timestamp;P1;durP1;ratioP1;P2;durP2;ratioP2
74523;SDS011;63074;44.696;10.358;2023-04-15T00:02:15;1.67;;;0.68;;
74523;SDS011;63074;44.696;10.358;2023-04-15T00:04:46;2.00;;;0.40;;
74523;SDS011;63074;44.696;10.358;2023-04-15T00:07:12;1.55;;;0.63;;
74523;SDS011;63074;44.696;10.358;2023-04-15T00:09:40;1.70;;;0.40;;
74523;SDS011;63074;44.696;10.358;2023-04-15T00:12:07;2.10;;;0.52;;
74523;SDS011;63074;44.696;10.358;2023-04-15T00:14:33;1.05;;;0.32;;
74523;SDS011;63074;44.696;10.358;2023-04-15T00:17:00;1.85;;;0.98;;
74523;SDS011;63074;44.696;10.358;2023-04-15T00:19:27;4.13;;;0.50;;
74523;SDS011;63074;44.696;10.358;2023-04-15T00:21:54;1.63;;;0.38;;
74523;SDS011;63074;44.696;10.358;2023-04-15T00:24:20;1.63;;;0.52;;
74523;SDS011;63074;44.696;10.358;2023-04-15T00:26:47;1.25;;;0.52;;
74523;SDS011;63074;44.696;10.358;2023-04-15T00:29:13;1.83;;;0.52;;
74523;SDS011;63074;44.696;10.358;2023-04-15T00:31:39;3.17;;;0.73;;
74523;SDS011;63074;44.696;10.358;2023-04-15T00:34:06;1.90;;;0.55;;
74523;SDS011;63074;44.696;10.358;2023-04-15T00:36:32;2.65;;;0.55;;
74523;SDS011;63074;44.696;10.358;2023-04-15T00:38:59;2.38;;;0.40;;
74523;SDS011;63074;44.696;10.358;2023-04-15T00:41:27;2.00;;;0.65;;
74523;SDS011;63074;44.696;10.358;2023-04-15T00:43:53;1.52;;;0.40;;
74523;SDS011;63074;44.696;10.358;2023-04-15T00:46:20;2.72;;;0.55;;
74523;SDS011;63074;44.696;10.358;2023-04-15T00:48:47;2.40;;;1.00;;
74523;SDS011;63074;44.696;10.358;2023-04-15T00:51:14;2.17;;;0.60;;
74523;SDS011;63074;44.696;10.358;2023-04-15T00:53:40;1.15;;;0.73;;
74523;SDS011;63074;44.696;10.358;2023-04-15T00:56:07;1.25;;;0.20;;
74523;SDS011;63074;44.696;10.358;2023-04-15T00:58:33;1.27;;;0.68;;
74523;SDS011;63074;44.696;10.358;2023-04-15T01:01:01;1.67;;;0.50;;
74523;SDS011;63074;44.696;10.358;2023-04-15T01:03:28;1.80;;;0.68;;
74523;SDS011;63074;44.696;10.358;2023-04-15T01:05:55;1.02;;;0.63;;
74523;SDS011;63074;44.696;10.358;2023-04-15T01:08:27;1.83;;;0.80;;
74523;SDS011;63074;44.696;10.358;2023-04-15T01:10:54;1.13;;;0.55;;
74523;SDS011;63074;44.696;10.358;2023-04-15T01:13:22;1.45;;;0.60;;
74523;SDS011;63074;44.696;10.358;2023-04-15T01:15:49;2.42;;;0.68;;
74523;SDS011;63074;44.696;10.358;2023-04-15T01:18:17;2.28;;;0.77;;
74523;SDS011;63074;44.696;10.358;2023-04-15T01:20:43;1.75;;;0.75;;
74523;SDS011;63074;44.696;10.358;2023-04-15T01:23:10;1.60;;;0.55;;
74523;SDS011;63074;44.696;10.358;2023-04-15T01:25:37;2.15;;;0.40;;
74523;SDS011;63074;44.696;10.358;2023-04-15T01:28:03;1.15;;;0.40;;
74523;SDS011;63074;44.696;10.358;2023-04-15T01:30:33;1.42;;;0.43;;
74523;SDS011;63074;44.696;10.358;2023-04-15T01:32:59;1.27;;;0.52;;
74523;SDS011;63074;44.696;10.358;2023-04-15T01:35:25;2.53;;;0.40;;
74523;SDS011;63074;44.696;10.358;2023-04-15T01:37:52;2.70;;;0.85;;
74523;SDS011;63074;44.696;10.358;2023-04-15T01:40:22;2.50;;;0.75;;
74523;SDS011;63074;44.696;10.358;2023-04-15T01:42:48;2.33;;;1.25;;
74523;SDS011;63074;44.696;10.358;2023-04-15T01:45:14;3.15;;;0.80;;
74523;SDS011;63074;44.696;10.358;2023-04-15T01:47:41;2.10;;;0.88;;
74523;SDS011;63074;44.696;10.358;2023-04-15T01:50:07;2.17;;;0.75;;
74523;SDS011;63074;44.696;10.358;2023-04-15T01:52:34;1.98;;;1.17;;
74523;SDS011;63074;44.696;10.358;2023-04-15T01:55:00;0.90;;;0.63;;
74523;SDS011;63074;44.696;10.358;2023-04-15T01:57:26;1.90;;;0.40;;
74523;SDS011;63074;44.696;10.358;2023-04-15T01:59:52;2.58;;;0.75;;
74523;SDS011;63074;44.696;10.358;2023-04-15T02:02:18;2.50;;;0.57;;
74523;SDS011;63074;44.696;10.358;2023-04-15T02:04:45;2.47;;;0.32;;
74523;SDS011;63074;44.696;10.358;2023-04-15T02:07:11;2.15;;;0.73;;
74523;SDS011;63074;44.696;10.358;2023-04-15T02:09:37;2.20;;;0.70;;
74523;SDS011;63074;44.696;10.358;2023-04-15T02:12:04;1.92;;;0.60;;
74523;SDS011;63074;44.696;10.358;2023-04-15T02:14:30;3.53;;;0.40;;
74523;SDS011;63074;44.696;10.358;2023-04-15T02:16:56;4.80;;;0.55;;
74523;SDS011;63074;44.696;10.358;2023-04-15T02:21:52;1.63;;;0.75;;
74523;SDS011;63074;44.696;10.358;2023-04-15T02:24:18;1.17;;;0.63;;
74523;SDS011;63074;44.696;10.358;2023-04-15T02:26:45;1.08;;;0.85;;
74523;SDS011;63074;44.696;10.358;2023-04-15T02:29:11;3.40;;;0.50;;
74523;SDS011;63074;44.696;10.358;2023-04-15T02:31:37;2.05;;;0.57;;
74523;SDS011;63074;44.696;10.358;2023-04-15T02:34:05;1.65;;;0.65;;
74523;SDS011;63074;44.696;10.358;2023-04-15T02:36:31;2.08;;;0.95;;
74523;SDS011;63074;44.696;10.358;2023-04-15T02:38:58;1.15;;;0.43;;
74523;SDS011;63074;44.696;10.358;2023-04-15T02:41:24;3.22;;;0.82;;
74523;SDS011;63074;44.696;10.358;2023-04-15T02:43:52;1.77;;;0.35;;
74523;SDS011;63074;44.696;10.358;2023-04-15T02:46:18;1.55;;;0.80;;
74523;SDS011;63074;44.696;10.358;2023-04-15T02:48:46;2.63;;;0.45;;
74523;SDS011;63074;44.696;10.358;2023-04-15T02:51:15;2.58;;;1.00;;
74523;SDS011;63074;44.696;10.358;2023-04-15T02:53:43;3.28;;;0.75;;
74523;SDS011;63074;44.696;10.358;2023-04-15T02:56:10;2.38;;;0.50;;
74523;SDS011;63074;44.696;10.358;2023-04-15T02:58:38;1.15;;;0.50;;
74523;SDS011;63074;44.696;10.358;2023-04-15T03:01:05;3.50;;;0.77;;
74523;SDS011;63074;44.696;10.358;2023-04-15T03:03:33;1.20;;;1.00;;
74523;SDS011;63074;44.696;10.358;2023-04-15T03:05:59;1.65;;;0.52;;
74523;SDS011;63074;44.696;10.358;2023-04-15T03:08:25;1.92;;;0.43;;
74523;SDS011;63074;44.696;10.358;2023-04-15T03:10:52;1.98;;;0.60;;
74523;SDS011;63074;44.696;10.358;2023-04-15T03:13:18;2.50;;;0.73;;
74523;SDS011;63074;44.696;10.358;2023-04-15T03:15:46;2.30;;;0.47;;
74523;SDS011;63074;44.696;10.358;2023-04-15T03:18:12;2.22;;;0.50;;
74523;SDS011;63074;44.696;10.358;2023-04-15T03:20:38;2.00;;;0.45;;
74523;SDS011;63074;44.696;10.358;2023-04-15T03:23:05;1.75;;;0.73;;
74523;SDS011;63074;44.696;10.358;2023-04-15T03:25:31;2.88;;;0.35;;
74523;SDS011;63074;44.696;10.358;2023-04-15T03:27:58;2.47;;;0.75;;
74523;SDS011;63074;44.696;10.358;2023-04-15T03:30:24;4.65;;;1.05;;
74523;SDS011;63074;44.696;10.358;2023-04-15T03:32:51;3.60;;;0.65;;
74523;SDS011;63074;44.696;10.358;2023-04-15T03:35:17;5.13;;;0.70;;
74523;SDS011;63074;44.696;10.358;2023-04-15T03:37:43;4.32;;;0.68;;
74523;SDS011;63074;44.696;10.358;2023-04-15T03:40:09;2.05;;;0.47;;
74523;SDS011;63074;44.696;10.358;2023-04-15T03:42:36;1.92;;;0.75;;
74523;SDS011;63074;44.696;10.358;2023-04-15T03:45:02;5.32;;;0.47;;
74523;SDS011;63074;44.696;10.358;2023-04-15T03:47:29;3.22;;;0.88;;
74523;SDS011;63074;44.696;10.358;2023-04-15T03:49:56;4.63;;;0.52;;
74523;SDS011;63074;44.696;10.358;2023-04-15T03:52:22;1.75;;;0.63;;
74523;SDS011;63074;44.696;10.358;2023-04-15T03:54:48;3.15;;;0.45;;
74523;SDS011;63074;44.696;10.358;2023-04-15T03:57:14;3.38;;;0.60;;
74523;SDS011;63074;44.696;10.358;2023-04-15T03:59:40;5.57;;;0.75;;
74523;SDS011;63074;44.696;10.358;2023-04-15T04:02:06;2.20;;;0.75;;
74523;SDS011;63074;44.696;10.358;2023-04-15T04:04:32;3.60;;;0.75;;
74523;SDS011;63074;44.696;10.358;2023-04-15T04:06:59;2.10;;;0.22;;
74523;SDS011;63074;44.696;10.358;2023-04-15T04:09:25;2.03;;;0.70;;
74523;SDS011;63074;44.696;10.358;2023-04-15T04:11:51;3.60;;;0.82;;
74523;SDS011;63074;44.696;10.358;2023-04-15T04:14:18;2.72;;;0.55;;
74523;SDS011;63074;44.696;10.358;2023-04-15T04:16:44;2.65;;;0.30;;
74523;SDS011;63074;44.696;10.358;2023-04-15T04:19:10;4.70;;;0.63;;
74523;SDS011;63074;44.696;10.358;2023-04-15T04:21:36;6.63;;;0.70;;
74523;SDS011;63074;44.696;10.358;2023-04-15T04:24:03;5.90;;;0.75;;
74523;SDS011;63074;44.696;10.358;2023-04-15T04:26:29;2.85;;;0.77;;
74523;SDS011;63074;44.696;10.358;2023-04-15T04:28:56;3.42;;;0.65;;
74523;SDS011;63074;44.696;10.358;2023-04-15T04:31:22;3.42;;;0.98;;
74523;SDS011;63074;44.696;10.358;2023-04-15T04:33:48;2.45;;;0.88;;
74523;SDS011;63074;44.696;10.358;2023-04-15T04:36:14;2.97;;;0.77;;
74523;SDS011;63074;44.696;10.358;2023-04-15T04:38:41;2.38;;;0.60;;
74523;SDS011;63074;44.696;10.358;2023-04-15T04:41:07;7.75;;;1.85;;
74523;SDS011;63074;44.696;10.358;2023-04-15T04:43:33;4.20;;;0.75;;
74523;SDS011;63074;44.696;10.358;2023-04-15T04:45:59;3.25;;;1.20;;
74523;SDS011;63074;44.696;10.358;2023-04-15T04:48:25;4.03;;;0.93;;
74523;SDS011;63074;44.696;10.358;2023-04-15T04:50:51;4.97;;;1.13;;
74523;SDS011;63074;44.696;10.358;2023-04-15T04:53:18;5.45;;;0.73;;
74523;SDS011;63074;44.696;10.358;2023-04-15T04:55:44;3.17;;;0.80;;
74523;SDS011;63074;44.696;10.358;2023-04-15T04:58:10;4.75;;;1.35;;
74523;SDS011;63074;44.696;10.358;2023-04-15T05:00:37;5.18;;;0.60;;
74523;SDS011;63074;44.696;10.358;2023-04-15T05:03:04;2.95;;;0.77;;
74523;SDS011;63074;44.696;10.358;2023-04-15T05:05:31;2.53;;;0.43;;
74523;SDS011;63074;44.696;10.358;2023-04-15T05:07:57;4.80;;;0.55;;
74523;SDS011;63074;44.696;10.358;2023-04-15T05:10:23;3.00;;;0.75;;
74523;SDS011;63074;44.696;10.358;2023-04-15T05:12:49;4.03;;;0.60;;
74523;SDS011;63074;44.696;10.358;2023-04-15T05:15:16;2.65;;;0.32;;
74523;SDS011;63074;44.696;10.358;2023-04-15T05:17:42;4.43;;;1.05;;
74523;SDS011;63074;44.696;10.358;2023-04-15T05:20:09;2.78;;;0.52;;
74523;SDS011;63074;44.696;10.358;2023-04-15T05:22:35;3.08;;;0.95;;
74523;SDS011;63074;44.696;10.358;2023-04-15T05:25:02;4.45;;;0.40;;
74523;SDS011;63074;44.696;10.358;2023-04-15T05:27:28;3.97;;;0.65;;
74523;SDS011;63074;44.696;10.358;2023-04-15T05:29:54;3.63;;;0.95;;
74523;SDS011;63074;44.696;10.358;2023-04-15T05:32:20;4.13;;;0.75;;
74523;SDS011;63074;44.696;10.358;2023-04-15T05:34:47;3.20;;;0.77;;
74523;SDS011;63074;44.696;10.358;2023-04-15T05:37:13;3.78;;;0.60;;
74523;SDS011;63074;44.696;10.358;2023-04-15T05:39:39;4.18;;;1.02;;
74523;SDS011;63074;44.696;10.358;2023-04-15T05:42:06;4.00;;;0.88;;
74523;SDS011;63074;44.696;10.358;2023-04-15T05:44:32;6.68;;;1.02;;
74523;SDS011;63074;44.696;10.358;2023-04-15T05:46:58;3.50;;;0.75;;
74523;SDS011;63074;44.696;10.358;2023-04-15T05:49:24;5.72;;;0.70;;
74523;SDS011;63074;44.696;10.358;2023-04-15T05:51:51;2.70;;;0.73;;
74523;SDS011;63074;44.696;10.358;2023-04-15T05:54:17;5.68;;;0.75;;
74523;SDS011;63074;44.696;10.358;2023-04-15T05:56:43;3.92;;;0.55;;
74523;SDS011;63074;44.696;10.358;2023-04-15T05:59:10;2.92;;;0.60;;
74523;SDS011;63074;44.696;10.358;2023-04-15T06:01:36;2.97;;;0.40;;
74523;SDS011;63074;44.696;10.358;2023-04-15T06:04:02;6.53;;;0.77;;
74523;SDS011;63074;44.696;10.358;2023-04-15T06:06:28;3.55;;;0.60;;
74523;SDS011;63074;44.696;10.358;2023-04-15T06:08:56;3.70;;;0.77;;
74523;SDS011;63074;44.696;10.358;2023-04-15T06:11:22;5.40;;;1.40;;
74523;SDS011;63074;44.696;10.358;2023-04-15T06:13:48;3.53;;;1.40;;
74523;SDS011;63074;44.696;10.358;2023-04-15T06:16:15;4.30;;;1.27;;
74523;SDS011;63074;44.696;10.358;2023-04-15T06:18:41;3.28;;;0.63;;
74523;SDS011;63074;44.696;10.358;2023-04-15T06:21:07;2.22;;;0.60;;
74523;SDS011;63074;44.696;10.358;2023-04-15T06:23:34;3.92;;;1.02;;
74523;SDS011;63074;44.696;10.358;2023-04-15T06:26:01;2.88;;;0.75;;
74523;SDS011;63074;44.696;10.358;2023-04-15T06:28:27;3.85;;;0.70;;
74523;SDS011;63074;44.696;10.358;2023-04-15T06:30:53;3.13;;;0.43;;
74523;SDS011;63074;44.696;10.358;2023-04-15T06:33:20;2.20;;;0.80;;
74523;SDS011;63074;44.696;10.358;2023-04-15T06:35:46;2.75;;;0.80;;
74523;SDS011;63074;44.696;10.358;2023-04-15T06:38:13;3.13;;;0.50;;
74523;SDS011;63074;44.696;10.358;2023-04-15T06:40:39;2.42;;;0.70;;
74523;SDS011;63074;44.696;10.358;2023-04-15T06:43:07;2.58;;;0.63;;
74523;SDS011;63074;44.696;10.358;2023-04-15T06:45:34;3.55;;;1.10;;
74523;SDS011;63074;44.696;10.358;2023-04-15T06:48:00;5.82;;;1.02;;
74523;SDS011;63074;44.696;10.358;2023-04-15T06:50:26;3.75;;;1.10;;
74523;SDS011;63074;44.696;10.358;2023-04-15T06:52:53;2.67;;;1.17;;
74523;SDS011;63074;44.696;10.358;2023-04-15T06:55:20;4.68;;;1.52;;
74523;SDS011;63074;44.696;10.358;2023-04-15T06:57:46;2.47;;;1.00;;
74523;SDS011;63074;44.696;10.358;2023-04-15T07:00:12;3.83;;;1.45;;
74523;SDS011;63074;44.696;10.358;2023-04-15T07:02:39;3.40;;;0.85;;
74523;SDS011;63074;44.696;10.358;2023-04-15T07:05:05;3.45;;;1.45;;
74523;SDS011;63074;44.696;10.358;2023-04-15T07:07:32;3.53;;;1.35;;
74523;SDS011;63074;44.696;10.358;2023-04-15T07:09:59;4.07;;;1.10;;
74523;SDS011;63074;44.696;10.358;2023-04-15T07:12:26;1.85;;;0.75;;
74523;SDS011;63074;44.696;10.358;2023-04-15T07:14:52;4.45;;;0.98;;
74523;SDS011;63074;44.696;10.358;2023-04-15T07:17:18;2.45;;;1.40;;
74523;SDS011;63074;44.696;10.358;2023-04-15T07:19:45;2.92;;;1.17;;
74523;SDS011;63074;44.696;10.358;2023-04-15T07:22:11;3.30;;;1.20;;
74523;SDS011;63074;44.696;10.358;2023-04-15T07:24:37;3.85;;;1.42;;
74523;SDS011;63074;44.696;10.358;2023-04-15T07:27:03;3.15;;;0.95;;
74523;SDS011;63074;44.696;10.358;2023-04-15T07:29:30;3.25;;;1.40;;
74523;SDS011;63074;44.696;10.358;2023-04-15T07:31:56;3.97;;;1.98;;
74523;SDS011;63074;44.696;10.358;2023-04-15T07:34:22;3.58;;;1.50;;
74523;SDS011;63074;44.696;10.358;2023-04-15T07:36:49;3.65;;;1.70;;
74523;SDS011;63074;44.696;10.358;2023-04-15T07:39:18;5.03;;;2.13;;
74523;SDS011;63074;44.696;10.358;2023-04-15T07:41:44;3.47;;;2.17;;
74523;SDS011;63074;44.696;10.358;2023-04-15T07:44:11;4.47;;;1.70;;
74523;SDS011;63074;44.696;10.358;2023-04-15T07:46:37;5.57;;;2.35;;
74523;SDS011;63074;44.696;10.358;2023-04-15T07:49:03;2.83;;;1.85;;
74523;SDS011;63074;44.696;10.358;2023-04-15T07:51:29;5.90;;;1.88;;
74523;SDS011;63074;44.696;10.358;2023-04-15T07:53:56;5.47;;;2.15;;
74523;SDS011;63074;44.696;10.358;2023-04-15T07:56:22;4.53;;;2.15;;
74523;SDS011;63074;44.696;10.358;2023-04-15T07:58:49;7.40;;;3.20;;
74523;SDS011;63074;44.696;10.358;2023-04-15T08:01:15;3.80;;;2.13;;
74523;SDS011;63074;44.696;10.358;2023-04-15T08:03:41;5.25;;;2.10;;
74523;SDS011;63074;44.696;10.358;2023-04-15T08:06:07;4.05;;;1.65;;
74523;SDS011;63074;44.696;10.358;2023-04-15T08:08:33;3.38;;;1.67;;
74523;SDS011;63074;44.696;10.358;2023-04-15T08:11:00;5.40;;;2.10;;
74523;SDS011;63074;44.696;10.358;2023-04-15T08:13:26;4.47;;;2.28;;
74523;SDS011;63074;44.696;10.358;2023-04-15T08:15:56;7.15;;;2.15;;
74523;SDS011;63074;44.696;10.358;2023-04-15T08:18:38;3.25;;;1.60;;
74523;SDS011;63074;44.696;10.358;2023-04-15T08:21:04;3.67;;;1.63;;
74523;SDS011;63074;44.696;10.358;2023-04-15T08:23:30;8.50;;;3.85;;
74523;SDS011;63074;44.696;10.358;2023-04-15T08:25:57;4.90;;;2.25;;
74523;SDS011;63074;44.696;10.358;2023-04-15T08:28:23;6.03;;;2.42;;
74523;SDS011;63074;44.696;10.358;2023-04-15T08:30:51;4.97;;;2.08;;
74523;SDS011;63074;44.696;10.358;2023-04-15T08:33:17;4.78;;;2.72;;
74523;SDS011;63074;44.696;10.358;2023-04-15T08:35:44;5.50;;;1.92;;
74523;SDS011;63074;44.696;10.358;2023-04-15T08:38:10;5.05;;;1.75;;
74523;SDS011;63074;44.696;10.358;2023-04-15T08:40:40;4.28;;;2.45;;
74523;SDS011;63074;44.696;10.358;2023-04-15T08:43:09;4.32;;;2.42;;
74523;SDS011;63074;44.696;10.358;2023-04-15T08:45:59;7.38;;;1.80;;
74523;SDS011;63074;44.696;10.358;2023-04-15T08:48:29;6.18;;;2.13;;
74523;SDS011;63074;44.696;10.358;2023-04-15T08:50:59;5.10;;;2.10;;
74523;SDS011;63074;44.696;10.358;2023-04-15T08:53:27;6.00;;;2.35;;
74523;SDS011;63074;44.696;10.358;2023-04-15T08:55:55;6.07;;;3.13;;
74523;SDS011;63074;44.696;10.358;2023-04-15T08:58:23;6.30;;;2.20;;
74523;SDS011;63074;44.696;10.358;2023-04-15T09:00:50;3.72;;;1.60;;
74523;SDS011;63074;44.696;10.358;2023-04-15T09:03:16;4.45;;;2.60;;
74523;SDS011;63074;44.696;10.358;2023-04-15T09:05:44;3.72;;;2.22;;
74523;SDS011;63074;44.696;10.358;2023-04-15T09:08:10;5.22;;;2.13;;
74523;SDS011;63074;44.696;10.358;2023-04-15T09:10:37;5.28;;;1.95;;
74523;SDS011;63074;44.696;10.358;2023-04-15T09:13:03;5.95;;;2.13;;
74523;SDS011;63074;44.696;10.358;2023-04-15T09:15:29;5.93;;;2.53;;
74523;SDS011;63074;44.696;10.358;2023-04-15T09:17:57;5.20;;;2.33;;
74523;SDS011;63074;44.696;10.358;2023-04-15T09:20:23;4.90;;;2.08;;
74523;SDS011;63074;44.696;10.358;2023-04-15T09:22:50;4.00;;;1.85;;
74523;SDS011;63074;44.696;10.358;2023-04-15T09:25:24;5.80;;;1.90;;
74523;SDS011;63074;44.696;10.358;2023-04-15T09:27:56;7.25;;;2.70;;
74523;SDS011;63074;44.696;10.358;2023-04-15T09:30:26;6.20;;;3.15;;
74523;SDS011;63074;44.696;10.358;2023-04-15T09:32:54;4.85;;;2.45;;
74523;SDS011;63074;44.696;10.358;2023-04-15T09:35:22;4.97;;;2.83;;
74523;SDS011;63074;44.696;10.358;2023-04-15T09:37:49;4.38;;;3.08;;
74523;SDS011;63074;44.696;10.358;2023-04-15T09:40:32;5.28;;;2.63;;
74523;SDS011;63074;44.696;10.358;2023-04-15T09:43:05;5.28;;;2.92;;
74523;SDS011;63074;44.696;10.358;2023-04-15T09:45:33;5.43;;;2.58;;
74523;SDS011;63074;44.696;10.358;2023-04-15T09:50:50;3.47;;;2.55;;
74523;SDS011;63074;44.696;10.358;2023-04-15T09:53:21;5.00;;;2.00;;
74523;SDS011;63074;44.696;10.358;2023-04-15T09:55:52;5.45;;;2.35;;
74523;SDS011;63074;44.696;10.358;2023-04-15T09:58:25;4.88;;;2.45;;
74523;SDS011;63074;44.696;10.358;2023-04-15T10:00:57;4.32;;;2.00;;
74523;SDS011;63074;44.696;10.358;2023-04-15T10:03:25;4.03;;;2.45;;
74523;SDS011;63074;44.696;10.358;2023-04-15T10:05:57;4.97;;;2.42;;
74523;SDS011;63074;44.696;10.358;2023-04-15T10:08:29;5.05;;;3.08;;
74523;SDS011;63074;44.696;10.358;2023-04-15T10:10:57;5.88;;;3.08;;
74523;SDS011;63074;44.696;10.358;2023-04-15T10:13:25;4.50;;;2.72;;
74523;SDS011;63074;44.696;10.358;2023-04-15T10:15:57;6.43;;;2.47;;
74523;SDS011;63074;44.696;10.358;2023-04-15T10:18:25;4.93;;;2.53;;
74523;SDS011;63074;44.696;10.358;2023-04-15T10:20:53;4.22;;;2.58;;
74523;SDS011;63074;44.696;10.358;2023-04-15T10:23:21;4.85;;;2.75;;
74523;SDS011;63074;44.696;10.358;2023-04-15T10:25:48;5.63;;;2.72;;
74523;SDS011;63074;44.696;10.358;2023-04-15T10:28:16;6.40;;;3.17;;
74523;SDS011;63074;44.696;10.358;2023-04-15T10:30:44;3.58;;;2.88;;
74523;SDS011;63074;44.696;10.358;2023-04-15T10:33:12;6.97;;;3.35;;
74523;SDS011;63074;44.696;10.358;2023-04-15T10:35:41;5.78;;;2.60;;
74523;SDS011;63074;44.696;10.358;2023-04-15T10:43:51;4.07;;;2.72;;
74523;SDS011;63074;44.696;10.358;2023-04-15T10:49:13;7.18;;;3.15;;
74523;SDS011;63074;44.696;10.358;2023-04-15T10:51:42;5.15;;;2.92;;
74523;SDS011;63074;44.696;10.358;2023-04-15T10:56:45;5.53;;;2.95;;
74523;SDS011;63074;44.696;10.358;2023-04-15T10:59:28;6.65;;;3.15;;
74523;SDS011;63074;44.696;10.358;2023-04-15T11:01:56;7.22;;;3.35;;
74523;SDS011;63074;44.696;10.358;2023-04-15T11:12:49;4.63;;;2.78;;
74523;SDS011;63074;44.696;10.358;2023-04-15T11:15:24;4.35;;;2.88;;
74523;SDS011;63074;44.696;10.358;2023-04-15T11:18:01;7.75;;;2.50;;
74523;SDS011;63074;44.696;10.358;2023-04-15T11:20:33;5.47;;;3.08;;
74523;SDS011;63074;44.696;10.358;2023-04-15T11:23:00;4.57;;;2.65;;
74523;SDS011;63074;44.696;10.358;2023-04-15T11:25:27;5.88;;;3.25;;
74523;SDS011;63074;44.696;10.358;2023-04-15T11:27:55;5.53;;;3.20;;
74523;SDS011;63074;44.696;10.358;2023-04-15T11:30:24;6.97;;;2.75;;
74523;SDS011;63074;44.696;10.358;2023-04-15T11:32:52;5.57;;;3.22;;
74523;SDS011;63074;44.696;10.358;2023-04-15T11:35:22;5.65;;;3.03;;
74523;SDS011;63074;44.696;10.358;2023-04-15T11:37:48;4.80;;;3.55;;
74523;SDS011;63074;44.696;10.358;2023-04-15T11:40:15;5.50;;;3.95;;
74523;SDS011;63074;44.696;10.358;2023-04-15T11:42:46;4.97;;;3.38;;
74523;SDS011;63074;44.696;10.358;2023-04-15T11:45:27;4.22;;;2.92;;
74523;SDS011;63074;44.696;10.358;2023-04-15T11:47:53;4.22;;;2.97;;
74523;SDS011;63074;44.696;10.358;2023-04-15T11:50:28;7.70;;;3.70;;
74523;SDS011;63074;44.696;10.358;2023-04-15T11:52:56;7.07;;;3.13;;
74523;SDS011;63074;44.696;10.358;2023-04-15T11:55:23;5.32;;;2.90;;
74523;SDS011;63074;44.696;10.358;2023-04-15T11:58:04;4.15;;;3.00;;
74523;SDS011;63074;44.696;10.358;2023-04-15T12:00:32;4.35;;;2.75;;
74523;SDS011;63074;44.696;10.358;2023-04-15T12:11:40;4.90;;;2.88;;
74523;SDS011;63074;44.696;10.358;2023-04-15T12:16:35;4.50;;;2.35;;
74523;SDS011;63074;44.696;10.358;2023-04-15T12:19:05;4.28;;;2.75;;
74523;SDS011;63074;44.696;10.358;2023-04-15T12:21:34;4.00;;;2.35;;
74523;SDS011;63074;44.696;10.358;2023-04-15T12:24:02;5.03;;;2.35;;
74523;SDS011;63074;44.696;10.358;2023-04-15T12:26:52;3.28;;;2.95;;
74523;SDS011;63074;44.696;10.358;2023-04-15T12:29:18;5.13;;;2.83;;
74523;SDS011;63074;44.696;10.358;2023-04-15T12:32:02;6.47;;;3.35;;
74523;SDS011;63074;44.696;10.358;2023-04-15T12:34:32;3.90;;;2.67;;
74523;SDS011;63074;44.696;10.358;2023-04-15T12:37:01;4.43;;;2.58;;
74523;SDS011;63074;44.696;10.358;2023-04-15T12:39:30;4.85;;;2.55;;
74523;SDS011;63074;44.696;10.358;2023-04-15T12:42:00;4.00;;;2.65;;
74523;SDS011;63074;44.696;10.358;2023-04-15T12:44:28;4.60;;;2.55;;
74523;SDS011;63074;44.696;10.358;2023-04-15T12:46:55;4.05;;;2.50;;
74523;SDS011;63074;44.696;10.358;2023-04-15T12:49:21;4.53;;;2.85;;
74523;SDS011;63074;44.696;10.358;2023-04-15T12:51:49;4.57;;;2.80;;
74523;SDS011;63074;44.696;10.358;2023-04-15T12:54:17;5.68;;;2.92;;
74523;SDS011;63074;44.696;10.358;2023-04-15T12:56:44;4.25;;;2.67;;
74523;SDS011;63074;44.696;10.358;2023-04-15T12:59:11;5.00;;;2.75;;
74523;SDS011;63074;44.696;10.358;2023-04-15T13:01:38;4.78;;;2.38;;
74523;SDS011;63074;44.696;10.358;2023-04-15T13:04:05;4.03;;;2.83;;
74523;SDS011;63074;44.696;10.358;2023-04-15T13:06:31;4.78;;;2.50;;
74523;SDS011;63074;44.696;10.358;2023-04-15T13:08:58;5.30;;;3.70;;
74523;SDS011;63074;44.696;10.358;2023-04-15T13:11:25;3.90;;;2.83;;
74523;SDS011;63074;44.696;10.358;2023-04-15T13:13:55;3.17;;;2.65;;
74523;SDS011;63074;44.696;10.358;2023-04-15T13:16:22;5.40;;;2.70;;
74523;SDS011;63074;44.696;10.358;2023-04-15T13:18:48;5.63;;;3.13;;
74523;SDS011;63074;44.696;10.358;2023-04-15T13:21:15;3.90;;;2.80;;
74523;SDS011;63074;44.696;10.358;2023-04-15T13:23:41;5.93;;;3.08;;
74523;SDS011;63074;44.696;10.358;2023-04-15T13:26:07;4.15;;;2.70;;
74523;SDS011;63074;44.696;10.358;2023-04-15T13:28:34;5.35;;;3.05;;
74523;SDS011;63074;44.696;10.358;2023-04-15T13:31:01;5.38;;;3.75;;
74523;SDS011;63074;44.696;10.358;2023-04-15T13:33:27;3.90;;;2.35;;
74523;SDS011;63074;44.696;10.358;2023-04-15T13:35:53;5.65;;;2.22;;
74523;SDS011;63074;44.696;10.358;2023-04-15T13:38:20;4.28;;;2.05;;
74523;SDS011;63074;44.696;10.358;2023-04-15T13:40:49;4.65;;;2.38;;
74523;SDS011;63074;44.696;10.358;2023-04-15T13:43:15;4.32;;;2.17;;
74523;SDS011;63074;44.696;10.358;2023-04-15T13:45:42;4.13;;;2.22;;
74523;SDS011;63074;44.696;10.358;2023-04-15T13:48:09;6.07;;;2.83;;
74523;SDS011;63074;44.696;10.358;2023-04-15T13:50:35;4.10;;;2.72;;
74523;SDS011;63074;44.696;10.358;2023-04-15T13:53:01;5.57;;;2.90;;
74523;SDS011;63074;44.696;10.358;2023-04-15T13:55:27;4.80;;;2.25;;
74523;SDS011;63074;44.696;10.358;2023-04-15T13:57:53;4.43;;;2.40;;
74523;SDS011;63074;44.696;10.358;2023-04-15T14:00:20;4.07;;;2.28;;
74523;SDS011;63074;44.696;10.358;2023-04-15T14:02:47;3.70;;;2.55;;
74523;SDS011;63074;44.696;10.358;2023-04-15T14:05:13;3.15;;;2.00;;
74523;SDS011;63074;44.696;10.358;2023-04-15T14:07:39;5.20;;;3.38;;
74523;SDS011;63074;44.696;10.358;2023-04-15T14:10:06;4.68;;;2.70;;
74523;SDS011;63074;44.696;10.358;2023-04-15T14:12:32;4.07;;;2.38;;
74523;SDS011;63074;44.696;10.358;2023-04-15T14:14:58;4.50;;;2.55;;
74523;SDS011;63074;44.696;10.358;2023-04-15T14:17:25;4.97;;;2.42;;
74523;SDS011;63074;44.696;10.358;2023-04-15T14:19:51;4.85;;;2.42;;
74523;SDS011;63074;44.696;10.358;2023-04-15T14:22:17;4.53;;;2.60;;
74523;SDS011;63074;44.696;10.358;2023-04-15T14:24:43;4.75;;;2.42;;
74523;SDS011;63074;44.696;10.358;2023-04-15T14:27:10;4.82;;;2.08;;
74523;SDS011;63074;44.696;10.358;2023-04-15T14:29:36;5.28;;;1.90;;
74523;SDS011;63074;44.696;10.358;2023-04-15T14:32:03;4.00;;;2.42;;
74523;SDS011;63074;44.696;10.358;2023-04-15T14:34:30;5.68;;;1.98;;
74523;SDS011;63074;44.696;10.358;2023-04-15T14:36:56;5.55;;;2.67;;
74523;SDS011;63074;44.696;10.358;2023-04-15T14:39:22;4.55;;;2.72;;
74523;SDS011;63074;44.696;10.358;2023-04-15T14:41:48;2.97;;;1.83;;
74523;SDS011;63074;44.696;10.358;2023-04-15T14:44:14;3.28;;;2.00;;
74523;SDS011;63074;44.696;10.358;2023-04-15T14:46:40;4.75;;;1.83;;
74523;SDS011;63074;44.696;10.358;2023-04-15T14:49:07;4.18;;;2.53;;
74523;SDS011;63074;44.696;10.358;2023-04-15T14:51:33;5.65;;;3.05;;
74523;SDS011;63074;44.696;10.358;2023-04-15T14:53:59;6.03;;;2.67;;
74523;SDS011;63074;44.696;10.358;2023-04-15T14:56:25;4.13;;;2.45;;
74523;SDS011;63074;44.696;10.358;2023-04-15T14:58:52;4.82;;;2.63;;
74523;SDS011;63074;44.696;10.358;2023-04-15T15:01:18;4.45;;;2.55;;
74523;SDS011;63074;44.696;10.358;2023-04-15T15:03:45;4.57;;;2.45;;
74523;SDS011;63074;44.696;10.358;2023-04-15T15:06:12;7.07;;;2.53;;
74523;SDS011;63074;44.696;10.358;2023-04-15T15:08:38;4.13;;;2.30;;
74523;SDS011;63074;44.696;10.358;2023-04-15T15:11:04;4.53;;;2.63;;